sensor_id;sensor_type;location;lat;lon;timestamp;P1;durP1;ratioP1;P2;durP2;ratioP2
76098;SDS011;64828;49.956;8.636;2023-07-02T00:00:12;2.80;;;1.92;;
76098;SDS011;64828;49.956;8.636;2023-07-02T00:00:28;3.13;;;2.10;;
76098;SDS011;64828;49.956;8.636;2023-07-02T00:00:43;4.30;;;2.20;;
76098;SDS011;64828;49.956;8.636;2023-07-02T00:00:59;4.07;;;2.20;;
76098;SDS011;64828;49.956;8.636;2023-07-02T00:01:15;3.35;;;2.17;;
76098;SDS011;64828;49.956;8.636;2023-07-02T00:01:30;3.20;;;2.13;;
76098;SDS011;64828;49.956;8.636;2023-07-02T00:01:46;3.00;;;2.00;;
76098;SDS011;64828;49.956;8.636;2023-07-02T00:02:02;3.45;;;2.03;;
76098;SDS011;64828;49.956;8.636;2023-07-02T00:02:18;4.13;;;2.20;;
76098;SDS011;64828;49.956;8.636;2023-07-02T00:02:34;3.63;;;2.17;;
76098;SDS011;64828;49.956;8.636;2023-07-02T00:02:51;3.30;;;2.05;;
76098;SDS011;64828;49.956;8.636;2023-07-02T00:03:06;4.07;;;1.90;;
76098;SDS011;64828;49.956;8.636;2023-07-02T00:03:22;4.10;;;1.90;;
76098;SDS011;64828;49.956;8.636;2023-07-02T00:03:38;3.27;;;2.10;;
76098;SDS011;64828;49.956;8.636;2023-07-02T00:03:54;5.32;;;2.40;;
76098;SDS011;64828;49.956;8.636;2023-07-02T00:04:09;5.22;;;2.22;;
76098;SDS011;64828;49.956;8.636;2023-07-02T00:04:28;3.60;;;2.15;;
76098;SDS011;64828;49.956;8.636;2023-07-02T00:04:44;3.53;;;2.20;;
76098;SDS011;64828;49.956;8.636;2023-07-02T00:05:00;2.77;;;1.87;;
76098;SDS011;64828;49.956;8.636;2023-07-02T00:05:15;3.05;;;1.73;;
76098;SDS011;64828;49.956;8.636;2023-07-02T00:05:32;3.97;;;2.00;;
76098;SDS011;64828;49.956;8.636;2023-07-02T00:05:48;4.50;;;2.10;;
76098;SDS011;64828;49.956;8.636;2023-07-02T00:06:09;3.50;;;2.00;;
76098;SDS011;64828;49.956;8.636;2023-07-02T00:06:24;2.70;;;1.97;;
76098;SDS011;64828;49.956;8.636;2023-07-02T00:06:44;2.60;;;1.90;;
76098;SDS011;64828;49.956;8.636;2023-07-02T00:07:03;3.83;;;2.20;;
76098;SDS011;64828;49.956;8.636;2023-07-02T00:07:19;4.63;;;2.20;;
76098;SDS011;64828;49.956;8.636;2023-07-02T00:07:35;4.90;;;2.07;;
76098;SDS011;64828;49.956;8.636;2023-07-02T00:07:51;4.07;;;2.10;;
76098;SDS011;64828;49.956;8.636;2023-07-02T00:08:06;3.60;;;2.10;;
76098;SDS011;64828;49.956;8.636;2023-07-02T00:08:22;3.30;;;1.90;;
76098;SDS011;64828;49.956;8.636;2023-07-02T00:08:38;3.13;;;1.90;;
76098;SDS011;64828;49.956;8.636;2023-07-02T00:08:55;3.25;;;2.03;;
76098;SDS011;64828;49.956;8.636;2023-07-02T00:09:11;3.00;;;1.97;;
76098;SDS011;64828;49.956;8.636;2023-07-02T00:09:27;3.03;;;2.10;;
76098;SDS011;64828;49.956;8.636;2023-07-02T00:09:43;3.03;;;2.00;;
76098;SDS011;64828;49.956;8.636;2023-07-02T00:09:58;2.90;;;1.80;;
76098;SDS011;64828;49.956;8.636;2023-07-02T00:10:14;2.73;;;1.77;;
76098;SDS011;64828;49.956;8.636;2023-07-02T00:10:30;3.80;;;1.98;;
76098;SDS011;64828;49.956;8.636;2023-07-02T00:10:45;4.37;;;1.93;;
76098;SDS011;64828;49.956;8.636;2023-07-02T00:11:01;3.65;;;1.92;;
76098;SDS011;64828;49.956;8.636;2023-07-02T00:11:16;3.97;;;2.42;;
76098;SDS011;64828;49.956;8.636;2023-07-02T00:11:32;4.23;;;2.57;;
76098;SDS011;64828;49.956;8.636;2023-07-02T00:11:48;3.20;;;2.00;;
76098;SDS011;64828;49.956;8.636;2023-07-02T00:12:03;3.35;;;1.80;;
76098;SDS011;64828;49.956;8.636;2023-07-02T00:12:19;4.28;;;1.90;;
76098;SDS011;64828;49.956;8.636;2023-07-02T00:12:35;4.00;;;2.10;;
76098;SDS011;64828;49.956;8.636;2023-07-02T00:12:51;4.40;;;2.03;;
76098;SDS011;64828;49.956;8.636;2023-07-02T00:13:06;4.10;;;1.90;;
76098;SDS011;64828;49.956;8.636;2023-07-02T00:13:22;2.20;;;1.80;;
76098;SDS011;64828;49.956;8.636;2023-07-02T00:13:38;2.53;;;2.00;;
76098;SDS011;64828;49.956;8.636;2023-07-02T00:13:54;3.40;;;2.10;;
76098;SDS011;64828;49.956;8.636;2023-07-02T00:14:09;3.10;;;1.90;;
76098;SDS011;64828;49.956;8.636;2023-07-02T00:14:25;2.55;;;1.75;;
76098;SDS011;64828;49.956;8.636;2023-07-02T00:14:41;2.83;;;1.67;;
76098;SDS011;64828;49.956;8.636;2023-07-02T00:14:56;3.27;;;1.83;;
76098;SDS011;64828;49.956;8.636;2023-07-02T00:15:12;4.10;;;2.20;;
76098;SDS011;64828;49.956;8.636;2023-07-02T00:15:28;4.10;;;2.30;;
76098;SDS011;64828;49.956;8.636;2023-07-02T00:15:43;3.27;;;2.10;;
76098;SDS011;64828;49.956;8.636;2023-07-02T00:15:59;2.90;;;1.88;;
76098;SDS011;64828;49.956;8.636;2023-07-02T00:16:14;3.20;;;2.00;;
76098;SDS011;64828;49.956;8.636;2023-07-02T00:16:30;3.13;;;2.05;;
76098;SDS011;64828;49.956;8.636;2023-07-02T00:16:46;2.87;;;1.80;;
76098;SDS011;64828;49.956;8.636;2023-07-02T00:17:01;3.45;;;1.88;;
76098;SDS011;64828;49.956;8.636;2023-07-02T00:17:19;3.17;;;1.92;;
76098;SDS011;64828;49.956;8.636;2023-07-02T00:17:35;3.72;;;2.20;;
76098;SDS011;64828;49.956;8.636;2023-07-02T00:17:54;4.57;;;2.42;;
76098;SDS011;64828;49.956;8.636;2023-07-02T00:18:12;3.30;;;2.05;;
76098;SDS011;64828;49.956;8.636;2023-07-02T00:18:31;3.50;;;1.80;;
76098;SDS011;64828;49.956;8.636;2023-07-02T00:18:48;4.20;;;1.90;;
76098;SDS011;64828;49.956;8.636;2023-07-02T00:19:07;3.22;;;1.80;;
76098;SDS011;64828;49.956;8.636;2023-07-02T00:19:23;3.53;;;1.70;;
76098;SDS011;64828;49.956;8.636;2023-07-02T00:19:39;3.65;;;1.80;;
76098;SDS011;64828;49.956;8.636;2023-07-02T00:19:57;3.15;;;1.85;;
76098;SDS011;64828;49.956;8.636;2023-07-02T00:20:12;2.70;;;1.90;;
76098;SDS011;64828;49.956;8.636;2023-07-02T00:20:32;3.60;;;2.08;;
76098;SDS011;64828;49.956;8.636;2023-07-02T00:20:52;3.70;;;2.08;;
76098;SDS011;64828;49.956;8.636;2023-07-02T00:21:08;4.40;;;2.00;;
76098;SDS011;64828;49.956;8.636;2023-07-02T00:21:28;4.22;;;1.80;;
76098;SDS011;64828;49.956;8.636;2023-07-02T00:21:43;4.28;;;1.70;;
76098;SDS011;64828;49.956;8.636;2023-07-02T00:21:59;3.40;;;1.70;;
76098;SDS011;64828;49.956;8.636;2023-07-02T00:22:15;3.35;;;1.92;;
76098;SDS011;64828;49.956;8.636;2023-07-02T00:22:30;3.33;;;1.98;;
76098;SDS011;64828;49.956;8.636;2023-07-02T00:22:51;3.35;;;2.00;;
76098;SDS011;64828;49.956;8.636;2023-07-02T00:23:06;3.30;;;2.00;;
76098;SDS011;64828;49.956;8.636;2023-07-02T00:23:23;3.33;;;1.90;;
76098;SDS011;64828;49.956;8.636;2023-07-02T00:23:39;2.97;;;2.00;;
76098;SDS011;64828;49.956;8.636;2023-07-02T00:23:55;2.75;;;1.98;;
76098;SDS011;64828;49.956;8.636;2023-07-02T00:24:13;2.63;;;1.80;;
76098;SDS011;64828;49.956;8.636;2023-07-02T00:24:30;3.03;;;1.80;;
76098;SDS011;64828;49.956;8.636;2023-07-02T00:24:46;2.87;;;1.83;;
76098;SDS011;64828;49.956;8.636;2023-07-02T00:25:02;3.08;;;1.80;;
76098;SDS011;64828;49.956;8.636;2023-07-02T00:25:17;3.53;;;1.90;;
76098;SDS011;64828;49.956;8.636;2023-07-02T00:25:33;3.97;;;1.90;;
76098;SDS011;64828;49.956;8.636;2023-07-02T00:25:49;3.75;;;1.98;;
76098;SDS011;64828;49.956;8.636;2023-07-02T00:26:04;2.83;;;1.83;;
76098;SDS011;64828;49.956;8.636;2023-07-02T00:26:20;2.85;;;1.83;;
76098;SDS011;64828;49.956;8.636;2023-07-02T00:26:36;4.07;;;2.00;;
76098;SDS011;64828;49.956;8.636;2023-07-02T00:26:52;5.80;;;2.10;;
76098;SDS011;64828;49.956;8.636;2023-07-02T00:27:10;4.33;;;2.07;;
76098;SDS011;64828;49.956;8.636;2023-07-02T00:27:27;2.63;;;1.90;;
76098;SDS011;64828;49.956;8.636;2023-07-02T00:27:52;2.55;;;1.92;;
76098;SDS011;64828;49.956;8.636;2023-07-02T00:28:26;3.80;;;2.00;;
76098;SDS011;64828;49.956;8.636;2023-07-02T00:28:41;4.47;;;2.20;;
76098;SDS011;64828;49.956;8.636;2023-07-02T00:28:57;4.22;;;2.30;;
76098;SDS011;64828;49.956;8.636;2023-07-02T00:29:12;2.97;;;2.10;;
76098;SDS011;64828;49.956;8.636;2023-07-02T00:29:28;3.15;;;2.20;;
76098;SDS011;64828;49.956;8.636;2023-07-02T00:29:44;3.38;;;2.17;;
76098;SDS011;64828;49.956;8.636;2023-07-02T00:29:59;2.97;;;2.03;;
76098;SDS011;64828;49.956;8.636;2023-07-02T00:30:15;3.08;;;2.08;;
76098;SDS011;64828;49.956;8.636;2023-07-02T00:30:31;3.30;;;2.03;;
76098;SDS011;64828;49.956;8.636;2023-07-02T00:30:46;3.17;;;2.00;;
76098;SDS011;64828;49.956;8.636;2023-07-02T00:31:02;3.97;;;2.20;;
76098;SDS011;64828;49.956;8.636;2023-07-02T00:31:17;4.50;;;2.20;;
76098;SDS011;64828;49.956;8.636;2023-07-02T00:31:33;3.30;;;2.00;;
76098;SDS011;64828;49.956;8.636;2023-07-02T00:31:49;2.80;;;1.90;;
76098;SDS011;64828;49.956;8.636;2023-07-02T00:32:05;3.03;;;1.80;;
76098;SDS011;64828;49.956;8.636;2023-07-02T00:32:20;4.07;;;1.90;;
76098;SDS011;64828;49.956;8.636;2023-07-02T00:32:36;4.18;;;1.88;;
76098;SDS011;64828;49.956;8.636;2023-07-02T00:32:51;2.87;;;1.83;;
76098;SDS011;64828;49.956;8.636;2023-07-02T00:33:07;3.35;;;1.90;;
76098;SDS011;64828;49.956;8.636;2023-07-02T00:33:23;3.73;;;1.90;;
76098;SDS011;64828;49.956;8.636;2023-07-02T00:33:39;4.35;;;1.90;;
76098;SDS011;64828;49.956;8.636;2023-07-02T00:33:54;4.18;;;1.92;;
76098;SDS011;64828;49.956;8.636;2023-07-02T00:34:10;3.20;;;2.03;;
76098;SDS011;64828;49.956;8.636;2023-07-02T00:34:25;3.50;;;2.10;;
76098;SDS011;64828;49.956;8.636;2023-07-02T00:34:41;4.22;;;2.10;;
76098;SDS011;64828;49.956;8.636;2023-07-02T00:34:57;3.53;;;1.83;;
76098;SDS011;64828;49.956;8.636;2023-07-02T00:35:13;2.40;;;1.70;;
76098;SDS011;64828;49.956;8.636;2023-07-02T00:35:29;3.63;;;1.97;;
76098;SDS011;64828;49.956;8.636;2023-07-02T00:35:44;4.13;;;2.13;;
76098;SDS011;64828;49.956;8.636;2023-07-02T00:36:00;3.17;;;2.00;;
76098;SDS011;64828;49.956;8.636;2023-07-02T00:36:16;3.90;;;1.95;;
76098;SDS011;64828;49.956;8.636;2023-07-02T00:36:31;4.28;;;2.05;;
76098;SDS011;64828;49.956;8.636;2023-07-02T00:36:47;4.37;;;2.00;;
76098;SDS011;64828;49.956;8.636;2023-07-02T00:37:03;4.18;;;2.10;;
76098;SDS011;64828;49.956;8.636;2023-07-02T00:37:18;4.13;;;2.10;;
76098;SDS011;64828;49.956;8.636;2023-07-02T00:37:34;3.40;;;1.87;;
76098;SDS011;64828;49.956;8.636;2023-07-02T00:37:50;3.90;;;1.88;;
76098;SDS011;64828;49.956;8.636;2023-07-02T00:38:05;5.13;;;2.00;;
76098;SDS011;64828;49.956;8.636;2023-07-02T00:38:21;4.40;;;2.00;;
76098;SDS011;64828;49.956;8.636;2023-07-02T00:38:37;3.70;;;1.90;;
76098;SDS011;64828;49.956;8.636;2023-07-02T00:38:52;3.40;;;1.88;;
76098;SDS011;64828;49.956;8.636;2023-07-02T00:39:08;3.20;;;1.93;;
76098;SDS011;64828;49.956;8.636;2023-07-02T00:39:24;2.95;;;1.85;;
76098;SDS011;64828;49.956;8.636;2023-07-02T00:39:39;2.93;;;1.73;;
76098;SDS011;64828;49.956;8.636;2023-07-02T00:39:55;2.70;;;1.83;;
76098;SDS011;64828;49.956;8.636;2023-07-02T00:40:10;2.90;;;2.13;;
76098;SDS011;64828;49.956;8.636;2023-07-02T00:40:26;3.17;;;2.10;;
76098;SDS011;64828;49.956;8.636;2023-07-02T00:40:42;2.85;;;1.83;;
76098;SDS011;64828;49.956;8.636;2023-07-02T00:40:58;3.70;;;1.83;;
76098;SDS011;64828;49.956;8.636;2023-07-02T00:41:13;3.60;;;1.80;;
76098;SDS011;64828;49.956;8.636;2023-07-02T00:41:30;2.70;;;1.70;;
76098;SDS011;64828;49.956;8.636;2023-07-02T00:41:45;3.90;;;1.80;;
76098;SDS011;64828;49.956;8.636;2023-07-02T00:42:01;3.72;;;1.77;;
76098;SDS011;64828;49.956;8.636;2023-07-02T00:42:19;2.38;;;1.48;;
76098;SDS011;64828;49.956;8.636;2023-07-02T00:42:35;2.50;;;1.40;;
76098;SDS011;64828;49.956;8.636;2023-07-02T00:42:50;3.17;;;1.70;;
76098;SDS011;64828;49.956;8.636;2023-07-02T00:43:06;3.92;;;1.80;;
76098;SDS011;64828;49.956;8.636;2023-07-02T00:43:27;3.70;;;2.00;;
76098;SDS011;64828;49.956;8.636;2023-07-02T00:43:43;2.92;;;2.00;;
76098;SDS011;64828;49.956;8.636;2023-07-02T00:43:58;3.07;;;2.00;;
76098;SDS011;64828;49.956;8.636;2023-07-02T00:44:14;3.00;;;1.98;;
76098;SDS011;64828;49.956;8.636;2023-07-02T00:44:30;2.83;;;1.87;;
76098;SDS011;64828;49.956;8.636;2023-07-02T00:44:45;3.33;;;1.73;;
76098;SDS011;64828;49.956;8.636;2023-07-02T00:45:01;3.38;;;1.70;;
76098;SDS011;64828;49.956;8.636;2023-07-02T00:45:17;3.60;;;1.80;;
76098;SDS011;64828;49.956;8.636;2023-07-02T00:45:33;3.15;;;1.77;;
76098;SDS011;64828;49.956;8.636;2023-07-02T00:45:49;2.53;;;1.80;;
76098;SDS011;64828;49.956;8.636;2023-07-02T00:46:05;3.33;;;1.70;;
76098;SDS011;64828;49.956;8.636;2023-07-02T00:46:21;4.17;;;1.80;;
76098;SDS011;64828;49.956;8.636;2023-07-02T00:46:39;4.43;;;1.85;;
76098;SDS011;64828;49.956;8.636;2023-07-02T00:46:55;2.85;;;1.83;;
76098;SDS011;64828;49.956;8.636;2023-07-02T00:47:12;6.43;;;2.50;;
76098;SDS011;64828;49.956;8.636;2023-07-02T00:47:29;6.25;;;2.60;;
76098;SDS011;64828;49.956;8.636;2023-07-02T00:47:48;2.95;;;1.83;;
76098;SDS011;64828;49.956;8.636;2023-07-02T00:48:04;3.63;;;1.70;;
76098;SDS011;64828;49.956;8.636;2023-07-02T00:48:21;4.05;;;1.85;;
76098;SDS011;64828;49.956;8.636;2023-07-02T00:48:37;3.10;;;1.63;;
76098;SDS011;64828;49.956;8.636;2023-07-02T00:48:55;3.92;;;1.63;;
76098;SDS011;64828;49.956;8.636;2023-07-02T00:49:11;3.70;;;1.75;;
76098;SDS011;64828;49.956;8.636;2023-07-02T00:49:27;2.57;;;1.70;;
76098;SDS011;64828;49.956;8.636;2023-07-02T00:49:43;3.00;;;1.70;;
76098;SDS011;64828;49.956;8.636;2023-07-02T00:49:59;3.63;;;1.70;;
76098;SDS011;64828;49.956;8.636;2023-07-02T00:50:16;3.47;;;1.60;;
76098;SDS011;64828;49.956;8.636;2023-07-02T00:50:32;3.33;;;1.70;;
76098;SDS011;64828;49.956;8.636;2023-07-02T00:50:48;3.38;;;1.88;;
76098;SDS011;64828;49.956;8.636;2023-07-02T00:51:04;2.80;;;1.70;;
76098;SDS011;64828;49.956;8.636;2023-07-02T00:51:24;2.88;;;1.60;;
76098;SDS011;64828;49.956;8.636;2023-07-02T00:51:42;2.90;;;1.70;;
76098;SDS011;64828;49.956;8.636;2023-07-02T00:51:58;2.63;;;1.63;;
76098;SDS011;64828;49.956;8.636;2023-07-02T00:52:14;2.47;;;1.70;;
76098;SDS011;64828;49.956;8.636;2023-07-02T00:52:30;3.10;;;1.80;;
76098;SDS011;64828;49.956;8.636;2023-07-02T00:52:45;3.92;;;1.98;;
76098;SDS011;64828;49.956;8.636;2023-07-02T00:53:01;4.37;;;2.20;;
76098;SDS011;64828;49.956;8.636;2023-07-02T00:53:16;3.78;;;2.10;;
76098;SDS011;64828;49.956;8.636;2023-07-02T00:53:32;3.10;;;1.90;;
76098;SDS011;64828;49.956;8.636;2023-07-02T00:53:48;3.72;;;1.90;;
76098;SDS011;64828;49.956;8.636;2023-07-02T00:54:06;3.10;;;1.75;;
76098;SDS011;64828;49.956;8.636;2023-07-02T00:54:21;3.15;;;1.73;;
76098;SDS011;64828;49.956;8.636;2023-07-02T00:54:37;3.57;;;1.67;;
76098;SDS011;64828;49.956;8.636;2023-07-02T00:54:53;3.45;;;1.70;;
76098;SDS011;64828;49.956;8.636;2023-07-02T00:55:09;2.80;;;1.73;;
76098;SDS011;64828;49.956;8.636;2023-07-02T00:55:24;2.80;;;1.87;;
76098;SDS011;64828;49.956;8.636;2023-07-02T00:55:40;4.30;;;2.00;;
76098;SDS011;64828;49.956;8.636;2023-07-02T00:55:55;4.40;;;1.80;;
76098;SDS011;64828;49.956;8.636;2023-07-02T00:56:11;3.58;;;1.60;;
76098;SDS011;64828;49.956;8.636;2023-07-02T00:56:27;3.15;;;1.60;;
76098;SDS011;64828;49.956;8.636;2023-07-02T00:56:43;5.90;;;2.20;;
76098;SDS011;64828;49.956;8.636;2023-07-02T00:57:00;5.72;;;2.30;;
76098;SDS011;64828;49.956;8.636;2023-07-02T00:57:18;2.40;;;1.70;;
76098;SDS011;64828;49.956;8.636;2023-07-02T00:57:35;3.28;;;1.80;;
76098;SDS011;64828;49.956;8.636;2023-07-02T00:57:50;4.93;;;2.00;;
76098;SDS011;64828;49.956;8.636;2023-07-02T00:58:06;4.15;;;1.90;;
76098;SDS011;64828;49.956;8.636;2023-07-02T00:58:23;3.22;;;1.65;;
76098;SDS011;64828;49.956;8.636;2023-07-02T00:58:40;3.07;;;1.70;;
76098;SDS011;64828;49.956;8.636;2023-07-02T00:59:03;3.20;;;1.70;;
76098;SDS011;64828;49.956;8.636;2023-07-02T00:59:19;3.58;;;1.70;;
76098;SDS011;64828;49.956;8.636;2023-07-02T00:59:35;3.83;;;1.80;;
76098;SDS011;64828;49.956;8.636;2023-07-02T00:59:52;3.50;;;1.88;;
76098;SDS011;64828;49.956;8.636;2023-07-02T01:00:08;3.67;;;1.85;;
76098;SDS011;64828;49.956;8.636;2023-07-02T01:00:24;3.53;;;1.80;;
76098;SDS011;64828;49.956;8.636;2023-07-02T01:00:40;3.05;;;1.67;;
76098;SDS011;64828;49.956;8.636;2023-07-02T01:00:58;3.28;;;1.65;;
76098;SDS011;64828;49.956;8.636;2023-07-02T01:01:15;3.23;;;1.73;;
76098;SDS011;64828;49.956;8.636;2023-07-02T01:01:35;3.22;;;1.88;;
76098;SDS011;64828;49.956;8.636;2023-07-02T01:01:52;3.08;;;1.77;;
76098;SDS011;64828;49.956;8.636;2023-07-02T01:02:08;3.53;;;1.80;;
76098;SDS011;64828;49.956;8.636;2023-07-02T01:02:24;3.57;;;1.73;;
76098;SDS011;64828;49.956;8.636;2023-07-02T01:02:40;2.75;;;1.70;;
76098;SDS011;64828;49.956;8.636;2023-07-02T01:02:59;2.95;;;1.70;;
76098;SDS011;64828;49.956;8.636;2023-07-02T01:03:14;3.08;;;1.65;;
76098;SDS011;64828;49.956;8.636;2023-07-02T01:03:30;4.00;;;1.65;;
76098;SDS011;64828;49.956;8.636;2023-07-02T01:04:17;3.20;;;1.83;;
76098;SDS011;64828;49.956;8.636;2023-07-02T01:04:34;3.17;;;1.83;;
76098;SDS011;64828;49.956;8.636;2023-07-02T01:04:49;3.47;;;1.70;;
76098;SDS011;64828;49.956;8.636;2023-07-02T01:05:07;3.03;;;1.67;;
76098;SDS011;64828;49.956;8.636;2023-07-02T01:05:22;2.50;;;1.70;;
76098;SDS011;64828;49.956;8.636;2023-07-02T01:05:38;3.67;;;1.80;;
76098;SDS011;64828;49.956;8.636;2023-07-02T01:05:56;4.38;;;2.03;;
76098;SDS011;64828;49.956;8.636;2023-07-02T01:06:11;3.63;;;2.10;;
76098;SDS011;64828;49.956;8.636;2023-07-02T01:06:28;3.13;;;1.83;;
76098;SDS011;64828;49.956;8.636;2023-07-02T01:06:44;3.17;;;1.90;;
76098;SDS011;64828;49.956;8.636;2023-07-02T01:07:00;2.67;;;1.80;;
76098;SDS011;64828;49.956;8.636;2023-07-02T01:07:16;2.40;;;1.60;;
76098;SDS011;64828;49.956;8.636;2023-07-02T01:07:32;3.00;;;1.70;;
76098;SDS011;64828;49.956;8.636;2023-07-02T01:07:47;3.17;;;1.80;;
76098;SDS011;64828;49.956;8.636;2023-07-02T01:08:04;3.40;;;1.95;;
76098;SDS011;64828;49.956;8.636;2023-07-02T01:08:23;3.50;;;2.17;;
76098;SDS011;64828;49.956;8.636;2023-07-02T01:08:38;3.83;;;1.88;;
76098;SDS011;64828;49.956;8.636;2023-07-02T01:08:54;3.40;;;1.70;;
76098;SDS011;64828;49.956;8.636;2023-07-02T01:09:13;3.60;;;1.80;;
76098;SDS011;64828;49.956;8.636;2023-07-02T01:09:28;3.40;;;1.87;;
76098;SDS011;64828;49.956;8.636;2023-07-02T01:09:44;3.67;;;2.00;;
76098;SDS011;64828;49.956;8.636;2023-07-02T01:09:59;4.30;;;1.98;;
76098;SDS011;64828;49.956;8.636;2023-07-02T01:10:15;4.13;;;2.00;;
76098;SDS011;64828;49.956;8.636;2023-07-02T01:10:31;3.75;;;2.25;;
76098;SDS011;64828;49.956;8.636;2023-07-02T01:10:50;3.28;;;2.20;;
76098;SDS011;64828;49.956;8.636;2023-07-02T01:11:06;2.90;;;1.70;;
76098;SDS011;64828;49.956;8.636;2023-07-02T01:11:23;3.87;;;1.63;;
76098;SDS011;64828;49.956;8.636;2023-07-02T01:11:54;3.40;;;1.90;;
76098;SDS011;64828;49.956;8.636;2023-07-02T01:12:17;3.72;;;1.77;;
76098;SDS011;64828;49.956;8.636;2023-07-02T01:12:34;3.42;;;1.60;;
76098;SDS011;64828;49.956;8.636;2023-07-02T01:12:52;3.30;;;1.80;;
76098;SDS011;64828;49.956;8.636;2023-07-02T01:13:12;2.92;;;1.70;;
76098;SDS011;64828;49.956;8.636;2023-07-02T01:13:34;4.72;;;1.92;;
76098;SDS011;64828;49.956;8.636;2023-07-02T01:13:50;4.30;;;1.97;;
76098;SDS011;64828;49.956;8.636;2023-07-02T01:14:26;3.08;;;1.73;;
76098;SDS011;64828;49.956;8.636;2023-07-02T01:14:51;3.20;;;1.80;;
76098;SDS011;64828;49.956;8.636;2023-07-02T01:15:13;3.75;;;1.83;;
76098;SDS011;64828;49.956;8.636;2023-07-02T01:15:29;3.07;;;1.80;;
76098;SDS011;64828;49.956;8.636;2023-07-02T01:15:45;2.70;;;1.63;;
76098;SDS011;64828;49.956;8.636;2023-07-02T01:16:02;4.18;;;2.03;;
76098;SDS011;64828;49.956;8.636;2023-07-02T01:16:18;4.53;;;2.17;;
76098;SDS011;64828;49.956;8.636;2023-07-02T01:16:36;3.67;;;1.80;;
76098;SDS011;64828;49.956;8.636;2023-07-02T01:16:58;3.60;;;1.80;;
76098;SDS011;64828;49.956;8.636;2023-07-02T01:17:16;2.40;;;1.58;;
76098;SDS011;64828;49.956;8.636;2023-07-02T01:17:34;2.88;;;1.80;;
76098;SDS011;64828;49.956;8.636;2023-07-02T01:17:56;2.88;;;1.70;;
76098;SDS011;64828;49.956;8.636;2023-07-02T01:18:13;3.80;;;1.80;;
76098;SDS011;64828;49.956;8.636;2023-07-02T01:18:30;4.03;;;1.92;;
76098;SDS011;64828;49.956;8.636;2023-07-02T01:18:46;3.20;;;1.80;;
76098;SDS011;64828;49.956;8.636;2023-07-02T01:19:02;3.05;;;1.63;;
76098;SDS011;64828;49.956;8.636;2023-07-02T01:19:50;2.67;;;1.50;;
76098;SDS011;64828;49.956;8.636;2023-07-02T01:20:13;3.75;;;1.95;;
76098;SDS011;64828;49.956;8.636;2023-07-02T01:20:29;3.70;;;2.10;;
76098;SDS011;64828;49.956;8.636;2023-07-02T01:20:46;4.30;;;2.00;;
76098;SDS011;64828;49.956;8.636;2023-07-02T01:21:02;5.30;;;1.90;;
76098;SDS011;64828;49.956;8.636;2023-07-02T01:21:22;4.55;;;1.70;;
76098;SDS011;64828;49.956;8.636;2023-07-02T01:21:39;3.08;;;1.63;;
76098;SDS011;64828;49.956;8.636;2023-07-02T01:21:55;3.25;;;1.70;;
76098;SDS011;64828;49.956;8.636;2023-07-02T01:22:11;3.38;;;1.75;;
76098;SDS011;64828;49.956;8.636;2023-07-02T01:22:28;3.47;;;1.80;;
76098;SDS011;64828;49.956;8.636;2023-07-02T01:22:44;3.22;;;1.80;;
76098;SDS011;64828;49.956;8.636;2023-07-02T01:22:59;3.75;;;1.80;;
76098;SDS011;64828;49.956;8.636;2023-07-02T01:23:18;4.50;;;1.80;;
76098;SDS011;64828;49.956;8.636;2023-07-02T01:23:34;3.50;;;1.80;;
76098;SDS011;64828;49.956;8.636;2023-07-02T01:23:50;3.92;;;1.92;;
76098;SDS011;64828;49.956;8.636;2023-07-02T01:24:06;4.22;;;1.90;;
76098;SDS011;64828;49.956;8.636;2023-07-02T01:24:22;4.40;;;1.70;;
76098;SDS011;64828;49.956;8.636;2023-07-02T01:24:40;3.95;;;1.67;;
76098;SDS011;64828;49.956;8.636;2023-07-02T01:24:56;3.80;;;1.63;;
76098;SDS011;64828;49.956;8.636;2023-07-02T01:25:12;3.83;;;1.77;;
76098;SDS011;64828;49.956;8.636;2023-07-02T01:25:30;4.80;;;2.00;;
76098;SDS011;64828;49.956;8.636;2023-07-02T01:25:46;4.80;;;1.87;;
76098;SDS011;64828;49.956;8.636;2023-07-02T01:26:02;3.50;;;1.60;;
76098;SDS011;64828;49.956;8.636;2023-07-02T01:26:18;2.58;;;1.50;;
76098;SDS011;64828;49.956;8.636;2023-07-02T01:26:34;3.00;;;1.50;;
76098;SDS011;64828;49.956;8.636;2023-07-02T01:26:51;3.40;;;1.70;;
76098;SDS011;64828;49.956;8.636;2023-07-02T01:27:07;3.10;;;1.80;;
76098;SDS011;64828;49.956;8.636;2023-07-02T01:27:27;2.83;;;1.75;;
76098;SDS011;64828;49.956;8.636;2023-07-02T01:27:44;3.08;;;1.73;;
76098;SDS011;64828;49.956;8.636;2023-07-02T01:28:00;4.47;;;1.80;;
76098;SDS011;64828;49.956;8.636;2023-07-02T01:28:15;3.70;;;1.80;;
76098;SDS011;64828;49.956;8.636;2023-07-02T01:28:34;2.35;;;1.80;;
76098;SDS011;64828;49.956;8.636;2023-07-02T01:28:51;2.75;;;1.80;;
76098;SDS011;64828;49.956;8.636;2023-07-02T01:29:17;3.38;;;1.85;;
76098;SDS011;64828;49.956;8.636;2023-07-02T01:29:35;2.28;;;1.70;;
76098;SDS011;64828;49.956;8.636;2023-07-02T01:29:54;3.10;;;1.83;;
76098;SDS011;64828;49.956;8.636;2023-07-02T01:30:10;3.70;;;2.00;;
76098;SDS011;64828;49.956;8.636;2023-07-02T01:30:26;3.00;;;2.00;;
76098;SDS011;64828;49.956;8.636;2023-07-02T01:30:41;4.10;;;2.00;;
76098;SDS011;64828;49.956;8.636;2023-07-02T01:30:57;4.00;;;2.00;;
76098;SDS011;64828;49.956;8.636;2023-07-02T01:31:12;3.23;;;1.80;;
76098;SDS011;64828;49.956;8.636;2023-07-02T01:31:28;3.33;;;1.80;;
76098;SDS011;64828;49.956;8.636;2023-07-02T01:31:44;2.53;;;1.70;;
76098;SDS011;64828;49.956;8.636;2023-07-02T01:32:00;3.25;;;1.75;;
76098;SDS011;64828;49.956;8.636;2023-07-02T01:32:16;4.38;;;1.98;;
76098;SDS011;64828;49.956;8.636;2023-07-02T01:32:32;3.90;;;1.97;;
76098;SDS011;64828;49.956;8.636;2023-07-02T01:32:47;3.22;;;1.73;;
76098;SDS011;64828;49.956;8.636;2023-07-02T01:33:03;3.40;;;1.70;;
76098;SDS011;64828;49.956;8.636;2023-07-02T01:33:18;3.23;;;1.80;;
76098;SDS011;64828;49.956;8.636;2023-07-02T01:33:34;2.83;;;1.75;;
76098;SDS011;64828;49.956;8.636;2023-07-02T01:33:49;4.10;;;1.80;;
76098;SDS011;64828;49.956;8.636;2023-07-02T01:34:06;3.97;;;1.80;;
76098;SDS011;64828;49.956;8.636;2023-07-02T01:34:23;2.85;;;1.77;;
76098;SDS011;64828;49.956;8.636;2023-07-02T01:34:38;3.17;;;1.67;;
76098;SDS011;64828;49.956;8.636;2023-07-02T01:34:54;3.65;;;1.83;;
76098;SDS011;64828;49.956;8.636;2023-07-02T01:35:10;3.55;;;1.80;;
76098;SDS011;64828;49.956;8.636;2023-07-02T01:35:26;3.07;;;1.70;;
76098;SDS011;64828;49.956;8.636;2023-07-02T01:35:41;3.10;;;1.70;;
76098;SDS011;64828;49.956;8.636;2023-07-02T01:35:57;4.38;;;1.80;;
76098;SDS011;64828;49.956;8.636;2023-07-02T01:36:13;4.00;;;1.88;;
76098;SDS011;64828;49.956;8.636;2023-07-02T01:36:29;4.28;;;1.90;;
76098;SDS011;64828;49.956;8.636;2023-07-02T01:36:45;4.00;;;1.90;;
76098;SDS011;64828;49.956;8.636;2023-07-02T01:37:01;2.88;;;1.80;;
76098;SDS011;64828;49.956;8.636;2023-07-02T01:37:18;3.13;;;1.70;;
76098;SDS011;64828;49.956;8.636;2023-07-02T01:37:34;4.30;;;1.65;;
76098;SDS011;64828;49.956;8.636;2023-07-02T01:37:52;3.53;;;1.70;;
76098;SDS011;64828;49.956;8.636;2023-07-02T01:38:08;2.97;;;1.92;;
76098;SDS011;64828;49.956;8.636;2023-07-02T01:38:24;3.40;;;1.83;;
76098;SDS011;64828;49.956;8.636;2023-07-02T01:38:39;3.05;;;1.65;;
76098;SDS011;64828;49.956;8.636;2023-07-02T01:38:55;3.50;;;1.80;;
76098;SDS011;64828;49.956;8.636;2023-07-02T01:39:11;3.70;;;1.80;;
76098;SDS011;64828;49.956;8.636;2023-07-02T01:39:26;3.45;;;1.65;;
76098;SDS011;64828;49.956;8.636;2023-07-02T01:39:42;3.03;;;1.63;;
76098;SDS011;64828;49.956;8.636;2023-07-02T01:39:58;2.50;;;1.60;;
76098;SDS011;64828;49.956;8.636;2023-07-02T01:40:13;2.47;;;1.58;;
76098;SDS011;64828;49.956;8.636;2023-07-02T01:40:29;3.20;;;1.80;;
76098;SDS011;64828;49.956;8.636;2023-07-02T01:40:44;3.08;;;1.80;;
76098;SDS011;64828;49.956;8.636;2023-07-02T01:41:00;3.50;;;1.77;;
76098;SDS011;64828;49.956;8.636;2023-07-02T01:41:15;3.47;;;1.75;;